Time;durP1;ratioP1;P1;durP2;ratioP2;P2;SDS_P1;SDS_P2;PMS_P1;PMS_P2;Temp;Humidity;BMP_temperature;BMP_pressure;BME280_temperature;BME280_humidity;BME280_pressure;Samples;Min_cycle;Max_cycle;Signal;HPM_P1;HPM_P2
2021/08/21 00:01:40;;;;;;;7.23;4.73;;;;;;;;;;5113538;28;20209;-74
2021/08/21 00:04:44;;;;;;;5.47;4.20;;;;;;;;;;5113486;28;20189;-74
2021/08/21 00:07:49;;;;;;;6.90;3.90;;;;;;;;;;5113752;28;20193;-75
2021/08/21 00:10:57;;;;;;;5.03;3.80;;;;;;;;;;5113407;28;20213;-75
2021/08/21 00:14:02;;;;;;;5.60;4.10;;;;;;;;;;5101233;28;20170;-75
2021/08/21 00:17:06;;;;;;;4.40;4.00;;;;;;;;;;5100892;28;20197;-75
2021/08/21 00:20:10;;;;;;;4.20;3.70;;;;;;;;;;5113673;28;20182;-75
2021/08/21 00:23:14;;;;;;;6.97;4.20;;;;;;;;;;5101123;28;20616;-74
2021/08/21 00:26:18;;;;;;;5.07;4.57;;;;;;;;;;5113247;28;20202;-76
2021/08/21 00:29:22;;;;;;;5.87;4.50;;;;;;;;;;5113575;28;20178;-75
2021/08/21 00:32:26;;;;;;;4.97;4.20;;;;;;;;;;5113144;28;20225;-75
2021/08/21 00:35:30;;;;;;;4.67;4.13;;;;;;;;;;5089483;28;20198;-75
2021/08/21 00:38:34;;;;;;;5.30;4.73;;;;;;;;;;5116893;28;20197;-75
2021/08/21 00:41:39;;;;;;;6.47;4.03;;;;;;;;;;5104485;28;20214;-75
2021/08/21 00:44:43;;;;;;;6.87;4.67;;;;;;;;;;5092927;28;20182;-75
2021/08/21 00:47:48;;;;;;;5.23;4.10;;;;;;;;;;5117050;28;20182;-75
2021/08/21 00:50:53;;;;;;;5.03;4.30;;;;;;;;;;5116872;28;20255;-74
2021/08/21 00:53:57;;;;;;;4.60;3.97;;;;;;;;;;5092479;28;20656;-75
2021/08/21 00:57:01;;;;;;;5.60;4.47;;;;;;;;;;5104039;28;20194;-75
2021/08/21 01:00:06;;;;;;;5.43;3.77;;;;;;;;;;5104414;28;20198;-75
2021/08/21 01:03:11;;;;;;;5.23;4.53;;;;;;;;;;5092290;28;20672;-75
2021/08/21 01:06:15;;;;;;;4.37;3.80;;;;;;;;;;5104187;28;20178;-75
2021/08/21 01:09:19;;;;;;;6.13;4.30;;;;;;;;;;5103828;28;20178;-75
2021/08/21 01:12:23;;;;;;;4.77;4.23;;;;;;;;;;5104145;28;20214;-75
2021/08/21 01:15:27;;;;;;;5.43;4.47;;;;;;;;;;5080791;28;20174;-75
2021/08/21 01:18:58;;;;;;;5.13;4.50;;;;;;;;;;5116193;28;20182;-75
2021/08/21 01:22:04;;;;;;;5.00;4.50;;;;;;;;;;5091837;28;20545;-75
2021/08/21 01:25:16;;;;;;;5.13;4.63;;;;;;;;;;5103638;28;20206;-75
2021/08/21 01:28:21;;;;;;;4.57;4.00;;;;;;;;;;5116586;28;20608;-75
2021/08/21 01:31:40;;;;;;;5.03;3.80;;;;;;;;;;5093665;28;20213;-75
2021/08/21 01:34:46;;;;;;;5.40;3.93;;;;;;;;;;5103677;28;20629;-75
2021/08/21 01:37:50;;;;;;;5.73;4.17;;;;;;;;;;5116106;28;20174;-75
2021/08/21 01:41:12;;;;;;;4.80;3.97;;;;;;;;;;5115709;28;20214;-75
2021/08/21 01:44:17;;;;;;;5.47;4.97;;;;;;;;;;5103451;28;20170;-75
2021/08/21 01:47:22;;;;;;;5.33;4.83;;;;;;;;;;5103363;28;20179;-75
2021/08/21 01:50:28;;;;;;;5.77;5.13;;;;;;;;;;5103432;28;20510;-75
2021/08/21 01:53:32;;;;;;;6.07;4.80;;;;;;;;;;5102946;28;20202;-75
2021/08/21 01:56:59;;;;;;;6.23;4.80;;;;;;;;;;5079646;28;20198;-75
2021/08/21 02:00:28;;;;;;;6.00;5.20;;;;;;;;;;5094177;28;20182;-75
2021/08/21 02:03:34;;;;;;;8.10;4.90;;;;;;;;;;5103016;28;20190;-75
2021/08/21 02:06:39;;;;;;;6.00;4.77;;;;;;;;;;5102988;28;20183;-75
2021/08/21 02:09:44;;;;;;;5.70;4.70;;;;;;;;;;5102621;28;20174;-76
2021/08/21 02:12:48;;;;;;;7.73;4.80;;;;;;;;;;5102412;28;20217;-76
2021/08/21 02:15:56;;;;;;;6.37;4.63;;;;;;;;;;5102487;28;20194;-76
2021/08/21 02:19:00;;;;;;;5.87;5.27;;;;;;;;;;5102451;28;20197;-76
2021/08/21 02:22:30;;;;;;;5.23;4.73;;;;;;;;;;5094129;28;20206;-75
2021/08/21 02:25:35;;;;;;;7.63;4.73;;;;;;;;;;5102305;28;20672;-76
2021/08/21 02:28:39;;;;;;;6.13;4.40;;;;;;;;;;5102306;28;20182;-76
2021/08/21 02:31:45;;;;;;;5.77;4.37;;;;;;;;;;5090551;28;20545;-76
2021/08/21 02:34:49;;;;;;;5.57;4.50;;;;;;;;;;5102381;28;20174;-75
2021/08/21 02:37:53;;;;;;;5.03;4.53;;;;;;;;;;5114601;28;20177;-76
2021/08/21 02:40:57;;;;;;;5.77;5.17;;;;;;;;;;5102113;28;20205;-76
2021/08/21 02:44:02;;;;;;;5.80;5.10;;;;;;;;;;5102590;28;20174;-76
2021/08/21 02:47:08;;;;;;;5.73;4.93;;;;;;;;;;5090623;28;20517;-75
2021/08/21 02:50:11;;;;;;;6.00;4.73;;;;;;;;;;5102253;28;20186;-75
2021/08/21 02:53:15;;;;;;;6.13;5.53;;;;;;;;;;5102137;28;20202;-76
2021/08/21 02:56:22;;;;;;;5.47;4.90;;;;;;;;;;5102072;28;20514;-76
2021/08/21 02:59:27;;;;;;;6.07;5.10;;;;;;;;;;5090591;28;20182;-75
2021/08/21 03:02:31;;;;;;;5.00;4.50;;;;;;;;;;5078660;28;20683;-75
2021/08/21 03:05:37;;;;;;;5.83;5.13;;;;;;;;;;5090227;28;20636;-75
2021/08/21 03:08:41;;;;;;;5.17;4.60;;;;;;;;;;5101891;28;20178;-75
2021/08/21 03:11:45;;;;;;;6.00;5.30;;;;;;;;;;5101543;28;20214;-75
2021/08/21 03:15:04;;;;;;;5.00;4.37;;;;;;;;;;5101510;28;20171;-75
2021/08/21 03:18:09;;;;;;;5.70;5.20;;;;;;;;;;5101791;28;20175;-75
2021/08/21 03:21:15;;;;;;;6.73;5.17;;;;;;;;;;5090099;28;20210;-75
2021/08/21 03:24:21;;;;;;;5.30;4.73;;;;;;;;;;5101351;28;20198;-76
2021/08/21 03:27:26;;;;;;;6.17;5.57;;;;;;;;;;5102458;22;20255;-77
2021/08/21 03:30:31;;;;;;;9.00;5.73;;;;;;;;;;5101642;28;20174;-76
2021/08/21 03:33:42;;;;;;;7.33;5.07;;;;;;;;;;5101419;28;20206;-76
2021/08/21 03:36:46;;;;;;;6.27;5.33;;;;;;;;;;5101284;28;20198;-76
2021/08/21 03:39:51;;;;;;;8.13;5.33;;;;;;;;;;5101559;28;20651;-77
2021/08/21 03:42:56;;;;;;;7.07;5.77;;;;;;;;;;5101486;28;20170;-76
2021/08/21 03:46:01;;;;;;;6.17;5.57;;;;;;;;;;5089712;28;20197;-77
2021/08/21 03:49:06;;;;;;;8.80;6.53;;;;;;;;;;5089843;28;20198;-76
2021/08/21 03:52:09;;;;;;;8.93;5.57;;;;;;;;;;5112820;28;20213;-76
2021/08/21 03:55:14;;;;;;;6.23;5.63;;;;;;;;;;5101262;28;20179;-77
2021/08/21 03:58:20;;;;;;;7.37;5.57;;;;;;;;;;5101645;28;20198;-76
2021/08/21 04:01:24;;;;;;;6.37;5.30;;;;;;;;;;5101103;28;20209;-76
2021/08/21 04:04:35;;;;;;;5.70;5.03;;;;;;;;;;5090739;28;20206;-77
2021/08/21 04:07:45;;;;;;;6.73;5.50;;;;;;;;;;5101302;28;20178;-76
2021/08/21 04:10:49;;;;;;;10.27;5.80;;;;;;;;;;5101743;28;20178;-76
2021/08/21 04:13:53;;;;;;;5.97;5.37;;;;;;;;;;5105239;28;20182;-76
2021/08/21 04:16:58;;;;;;;7.30;5.57;;;;;;;;;;5104918;28;20185;-76
2021/08/21 04:20:04;;;;;;;5.70;5.03;;;;;;;;;;5104824;28;20174;-76
2021/08/21 04:23:09;;;;;;;7.20;5.40;;;;;;;;;;5104600;28;20217;-76
2021/08/21 04:26:17;;;;;;;6.73;5.53;;;;;;;;;;5104798;28;20205;-76
2021/08/21 04:29:21;;;;;;;5.97;5.07;;;;;;;;;;5104682;28;20510;-76
2021/08/21 04:32:25;;;;;;;6.30;5.20;;;;;;;;;;5104779;28;20221;-76
2021/08/21 04:35:30;;;;;;;5.20;4.70;;;;;;;;;;5105053;28;20197;-76
2021/08/21 04:38:34;;;;;;;5.87;4.73;;;;;;;;;;5092783;28;20202;-76
2021/08/21 04:41:41;;;;;;;5.50;5.00;;;;;;;;;;5104407;28;20561;-76
2021/08/21 04:44:45;;;;;;;6.53;5.00;;;;;;;;;;5104391;28;20206;-76
2021/08/21 04:47:50;;;;;;;6.60;4.50;;;;;;;;;;5092882;28;20183;-76
2021/08/21 04:50:55;;;;;;;5.90;5.30;;;;;;;;;;5104417;28;20217;-76
2021/08/21 04:54:01;;;;;;;6.40;5.20;;;;;;;;;;5092831;28;20174;-76
2021/08/21 04:57:05;;;;;;;6.77;5.23;;;;;;;;;;5116640;28;20182;-76
2021/08/21 05:00:16;;;;;;;7.70;5.13;;;;;;;;;;5103943;28;20182;-76
2021/08/21 05:03:39;;;;;;;10.63;5.60;;;;;;;;;;5104140;28;20541;-76
2021/08/21 05:06:43;;;;;;;6.97;5.27;;;;;;;;;;5080769;28;20537;-76
2021/08/21 05:09:47;;;;;;;5.40;4.80;;;;;;;;;;5092262;28;20202;-77
2021/08/21 05:12:57;;;;;;;8.87;4.97;;;;;;;;;;5092143;28;20187;-76
2021/08/21 05:16:01;;;;;;;7.97;5.80;;;;;;;;;;5103800;28;20178;-77
2021/08/21 05:20:03;;;;;;;7.77;5.23;;;;;;;;;;5107896;28;20174;-76
2021/08/21 05:23:15;;;;;;;12.17;5.10;;;;;;;;;;5103455;28;20206;-76
2021/08/21 05:26:18;;;;;;;9.27;5.63;;;;;;;;;;5103473;28;20197;-76
2021/08/21 05:29:23;;;;;;;7.87;4.80;;;;;;;;;;5091811;28;20513;-76
2021/08/21 05:32:27;;;;;;;6.60;5.10;;;;;;;;;;5103671;28;20221;-76
2021/08/21 05:35:32;;;;;;;6.50;4.80;;;;;;;;;;5116245;28;20502;-77
2021/08/21 05:38:37;;;;;;;4.77;3.93;;;;;;;;;;5103508;28;20632;-76
2021/08/21 05:41:40;;;;;;;5.80;4.27;;;;;;;;;;5116032;28;20222;-76
2021/08/21 05:44:45;;;;;;;10.00;4.60;;;;;;;;;;5115772;28;20206;-76
2021/08/21 05:47:49;;;;;;;5.60;4.20;;;;;;;;;;5114849;28;20518;-76
2021/08/21 05:50:53;;;;;;;5.50;4.07;;;;;;;;;;5115809;28;20683;-76
2021/08/21 05:53:57;;;;;;;6.63;4.50;;;;;;;;;;5103582;28;20174;-76
2021/08/21 05:57:01;;;;;;;4.50;4.10;;;;;;;;;;5103516;28;20182;-76
2021/08/21 06:00:07;;;;;;;6.53;5.30;;;;;;;;;;5115121;28;20501;-76
2021/08/21 06:03:19;;;;;;;8.33;4.40;;;;;;;;;;5102965;28;20210;-76
2021/08/21 06:06:24;;;;;;;7.17;4.90;;;;;;;;;;5091051;28;20194;-76
2021/08/21 06:09:28;;;;;;;5.37;4.50;;;;;;;;;;5102678;28;20656;-76
2021/08/21 06:12:32;;;;;;;4.47;4.07;;;;;;;;;;5102900;28;20218;-76
2021/08/21 06:15:36;;;;;;;5.53;3.97;;;;;;;;;;5102714;28;20178;-76
2021/08/21 06:18:40;;;;;;;4.53;4.00;;;;;;;;;;5115097;28;20175;-76
2021/08/21 06:21:44;;;;;;;5.20;4.10;;;;;;;;;;5102414;28;20217;-76
2021/08/21 06:24:49;;;;;;;5.27;4.00;;;;;;;;;;5114673;28;20202;-76
2021/08/21 06:27:53;;;;;;;5.20;3.87;;;;;;;;;;5115492;28;20668;-76
2021/08/21 06:30:57;;;;;;;11.00;4.37;;;;;;;;;;5114866;28;20221;-76
2021/08/21 06:34:01;;;;;;;4.83;3.87;;;;;;;;;;5101884;28;20178;-77
2021/08/21 06:37:06;;;;;;;13.87;5.00;;;;;;;;;;5102485;28;20509;-76
2021/08/21 06:40:11;;;;;;;10.00;4.67;;;;;;;;;;5114626;28;20241;-77
2021/08/21 06:43:15;;;;;;;4.50;3.90;;;;;;;;;;5114438;28;20201;-76
2021/08/21 06:46:42;;;;;;;4.87;4.47;;;;;;;;;;5102104;28;20178;-76
2021/08/21 06:49:46;;;;;;;5.43;4.30;;;;;;;;;;5114447;28;20182;-76
2021/08/21 06:52:51;;;;;;;5.17;4.67;;;;;;;;;;5101879;28;20217;-76
2021/08/21 06:55:56;;;;;;;9.27;5.17;;;;;;;;;;5102171;28;20175;-75
2021/08/21 06:59:01;;;;;;;6.30;5.03;;;;;;;;;;5102160;28;20513;-76
2021/08/21 07:02:05;;;;;;;6.00;5.40;;;;;;;;;;5113410;28;20218;-77
2021/08/21 07:05:10;;;;;;;12.17;8.30;;;;;;;;;;5114257;28;20201;-76
2021/08/21 07:08:13;;;;;;;10.37;7.87;;;;;;;;;;5101625;28;20174;-76
2021/08/21 07:11:18;;;;;;;9.77;7.33;;;;;;;;;;5101549;28;20209;-76
2021/08/21 07:14:21;;;;;;;7.07;5.90;;;;;;;;;;5101827;28;20169;-76
2021/08/21 07:17:26;;;;;;;11.57;6.93;;;;;;;;;;5101593;28;20517;-76
2021/08/21 07:20:29;;;;;;;10.17;7.73;;;;;;;;;;5101539;28;20522;-76
2021/08/21 07:23:34;;;;;;;8.67;7.60;;;;;;;;;;5101714;28;20632;-76
2021/08/21 07:26:38;;;;;;;10.23;9.13;;;;;;;;;;5113184;28;20663;-76
2021/08/21 07:29:42;;;;;;;8.67;6.67;;;;;;;;;;5101630;28;20186;-76
2021/08/21 07:32:46;;;;;;;9.30;8.27;;;;;;;;;;5101340;28;20210;-76
2021/08/21 07:35:50;;;;;;;10.97;8.77;;;;;;;;;;5078443;28;20174;-76
2021/08/21 07:38:54;;;;;;;8.30;7.40;;;;;;;;;;5113950;28;20197;-76
2021/08/21 07:41:59;;;;;;;12.73;7.93;;;;;;;;;;5113974;28;20545;-76
2021/08/21 07:45:04;;;;;;;7.97;6.90;;;;;;;;;;5090691;28;20206;-76
2021/08/21 07:48:09;;;;;;;12.37;7.77;;;;;;;;;;5117315;28;20178;-76
2021/08/21 07:51:13;;;;;;;10.60;6.67;;;;;;;;;;5117914;28;20213;-76
2021/08/21 07:54:17;;;;;;;6.83;5.67;;;;;;;;;;5117098;28;20217;-76
2021/08/21 07:57:21;;;;;;;8.63;5.80;;;;;;;;;;5105573;28;20182;-76
2021/08/21 08:00:26;;;;;;;8.07;6.03;;;;;;;;;;5118106;28;20182;-76
2021/08/21 08:03:30;;;;;;;6.30;5.47;;;;;;;;;;5105367;28;20174;-76
2021/08/21 08:06:34;;;;;;;8.03;5.73;;;;;;;;;;5117915;28;20186;-76
2021/08/21 08:09:38;;;;;;;6.53;5.77;;;;;;;;;;5117813;28;20514;-76
2021/08/21 08:12:42;;;;;;;8.07;5.70;;;;;;;;;;5118029;28;20213;-76
2021/08/21 08:15:47;;;;;;;6.60;5.17;;;;;;;;;;5104865;28;20197;-76
2021/08/21 08:18:51;;;;;;;10.93;4.77;;;;;;;;;;5105184;28;20179;-76
2021/08/21 08:21:55;;;;;;;8.50;5.40;;;;;;;;;;5117265;28;20557;-76
2021/08/21 08:24:59;;;;;;;6.03;4.90;;;;;;;;;;5092957;28;20212;-76
2021/08/21 08:28:03;;;;;;;6.43;5.67;;;;;;;;;;5117117;28;20204;-76
2021/08/21 08:31:07;;;;;;;6.67;5.43;;;;;;;;;;5117079;28;20224;-76
2021/08/21 08:34:11;;;;;;;5.53;4.97;;;;;;;;;;5104818;28;20167;-76
2021/08/21 08:37:15;;;;;;;5.70;4.57;;;;;;;;;;5117045;28;20199;-76
2021/08/21 08:40:22;;;;;;;5.53;4.07;;;;;;;;;;5092748;28;20195;-76
2021/08/21 08:43:28;;;;;;;7.03;5.03;;;;;;;;;;5117213;28;20178;-76
2021/08/21 08:46:32;;;;;;;5.85;5.03;;;;;;;;;;5080963;28;20633;-76
2021/08/21 08:49:37;;;;;;;7.10;5.20;;;;;;;;;;5117120;28;20178;-76
2021/08/21 08:52:41;;;;;;;8.57;5.03;;;;;;;;;;5102969;28;20224;-76
2021/08/21 08:55:46;;;;;;;8.82;4.50;;;;;;;;;;5109413;28;20193;-77
2021/08/21 08:58:50;;;;;;;6.28;5.20;;;;;;;;;;5113545;28;20199;-76
2021/08/21 09:01:55;;;;;;;7.45;4.90;;;;;;;;;;5084866;28;20568;-77
2021/08/21 09:05:01;;;;;;;8.23;5.03;;;;;;;;;;5108396;28;20216;-77
2021/08/21 09:08:05;;;;;;;7.00;5.35;;;;;;;;;;5096301;28;20202;-77
2021/08/21 09:11:21;;;;;;;10.52;5.50;;;;;;;;;;5105448;28;20215;-77
2021/08/21 09:14:31;;;;;;;7.32;4.47;;;;;;;;;;5097898;28;20647;-77
2021/08/21 09:17:35;;;;;;;6.47;4.32;;;;;;;;;;5096254;28;20187;-77
2021/08/21 09:20:48;;;;;;;6.78;4.70;;;;;;;;;;5110750;28;20198;-77
2021/08/21 09:23:53;;;;;;;5.65;4.45;;;;;;;;;;5115657;28;20525;-77
2021/08/21 09:27:14;;;;;;;7.75;5.05;;;;;;;;;;5088100;22;20205;-75
2021/08/21 09:30:17;;;;;;;5.82;4.22;;;;;;;;;;5061317;28;20196;-75
2021/08/21 09:33:21;;;;;;;6.40;4.65;;;;;;;;;;5035985;28;20183;-75
2021/08/21 09:36:34;;;;;;;4.68;4.18;;;;;;;;;;5052875;28;20203;-75
2021/08/21 09:39:39;;;;;;;5.72;4.45;;;;;;;;;;5060234;28;20644;-76
2021/08/21 09:42:44;;;;;;;6.13;4.22;;;;;;;;;;5054600;28;20224;-76
2021/08/21 09:46:26;;;;;;;9.15;4.07;;;;;;;;;;5054687;28;20555;-75
2021/08/21 09:49:30;;;;;;;3.83;3.42;;;;;;;;;;5050331;28;20189;-75
2021/08/21 09:52:34;;;;;;;6.43;4.20;;;;;;;;;;5039376;28;20223;-76
2021/08/21 09:55:39;;;;;;;6.82;4.22;;;;;;;;;;5054378;28;20184;-76
2021/08/21 09:58:43;;;;;;;7.60;4.63;;;;;;;;;;5055393;28;20173;-75
2021/08/21 10:01:47;;;;;;;7.57;4.72;;;;;;;;;;5046023;28;20220;-75
2021/08/21 10:04:51;;;;;;;6.68;4.15;;;;;;;;;;5042436;28;20216;-75
2021/08/21 10:11:03;;;;;;;7.57;4.63;;;;;;;;;;5067781;28;20221;-76
2021/08/21 10:14:07;;;;;;;4.38;3.97;;;;;;;;;;5053788;28;20203;-75
2021/08/21 10:17:17;;;;;;;5.57;4.70;;;;;;;;;;5034536;28;20660;-75
2021/08/21 10:20:22;;;;;;;4.57;3.90;;;;;;;;;;5035015;28;20521;-75
2021/08/21 10:23:27;;;;;;;7.68;4.43;;;;;;;;;;5035665;28;20679;-75
2021/08/21 10:26:40;;;;;;;5.43;4.00;;;;;;;;;;5034020;28;20553;-77
2021/08/21 10:30:03;;;;;;;7.30;4.00;;;;;;;;;;5035061;28;20178;-76
2021/08/21 10:33:07;;;;;;;11.88;4.28;;;;;;;;;;5049553;28;20193;-76
2021/08/21 10:36:11;;;;;;;4.30;3.85;;;;;;;;;;5034516;28;20170;-75
2021/08/21 10:39:22;;;;;;;4.97;3.72;;;;;;;;;;5021935;28;20184;-76
2021/08/21 10:42:30;;;;;;;7.65;3.83;;;;;;;;;;5051576;28;20220;-75
2021/08/21 10:45:42;;;;;;;10.85;4.13;;;;;;;;;;5035521;28;20551;-76
2021/08/21 10:48:49;;;;;;;6.00;3.95;;;;;;;;;;5047131;28;20191;-76
2021/08/21 10:51:53;;;;;;;6.30;3.58;;;;;;;;;;5025070;28;20220;-75
2021/08/21 10:55:11;;;;;;;3.40;3.10;;;;;;;;;;5051373;28;20184;-75
2021/08/21 10:58:24;;;;;;;3.30;2.88;;;;;;;;;;5054562;28;20523;-75
2021/08/21 11:01:28;;;;;;;4.10;3.20;;;;;;;;;;5061768;28;20224;-76
2021/08/21 11:04:35;;;;;;;4.43;3.65;;;;;;;;;;5049030;28;20192;-75
2021/08/21 11:07:41;;;;;;;9.20;3.60;;;;;;;;;;5048045;28;20192;-75
2021/08/21 11:10:45;;;;;;;4.65;3.00;;;;;;;;;;5050077;28;20192;-75
2021/08/21 11:13:58;;;;;;;4.88;2.95;;;;;;;;;;5044204;28;20200;-76
2021/08/21 11:17:05;;;;;;;3.70;2.92;;;;;;;;;;5033644;28;20169;-75
2021/08/21 11:20:35;;;;;;;3.67;3.08;;;;;;;;;;5031354;28;20196;-75
2021/08/21 11:23:51;;;;;;;4.05;2.90;;;;;;;;;;5042608;28;20639;-76
2021/08/21 11:27:28;;;;;;;3.88;3.30;;;;;;;;;;5039187;28;20513;-75
2021/08/21 11:30:38;;;;;;;3.45;3.15;;;;;;;;;;5032516;28;20185;-76
2021/08/21 11:33:43;;;;;;;3.05;2.75;;;;;;;;;;5033387;28;20281;-76
2021/08/21 11:36:48;;;;;;;5.20;2.75;;;;;;;;;;5033273;28;20244;-75
2021/08/21 11:39:54;;;;;;;3.78;2.67;;;;;;;;;;5032628;28;20177;-76
2021/08/21 11:42:58;;;;;;;3.72;2.85;;;;;;;;;;5033524;28;20204;-75
2021/08/21 11:46:03;;;;;;;3.28;2.70;;;;;;;;;;5032231;28;20216;-75
2021/08/21 11:49:08;;;;;;;3.72;2.88;;;;;;;;;;5033820;28;20185;-76
2021/08/21 11:52:12;;;;;;;3.85;3.13;;;;;;;;;;5033304;28;20216;-76
2021/08/21 11:55:17;;;;;;;5.22;2.90;;;;;;;;;;5033399;28;20341;-75
2021/08/21 11:58:43;;;;;;;3.80;3.10;;;;;;;;;;5033417;28;20197;-75
2021/08/21 12:01:59;;;;;;;3.55;3.13;;;;;;;;;;5033069;28;20220;-75
2021/08/21 12:05:03;;;;;;;5.35;3.20;;;;;;;;;;5032773;28;20648;-75
2021/08/21 12:08:24;;;;;;;3.75;3.10;;;;;;;;;;5033037;28;20184;-76
2021/08/21 12:11:28;;;;;;;5.65;3.38;;;;;;;;;;5021104;28;20217;-76
2021/08/21 12:14:35;;;;;;;4.25;2.90;;;;;;;;;;5033585;28;20177;-76
2021/08/21 12:17:39;;;;;;;4.97;2.70;;;;;;;;;;5032174;28;20177;-76
2021/08/21 12:20:43;;;;;;;4.45;3.13;;;;;;;;;;5032056;28;20185;-76
2021/08/21 12:23:48;;;;;;;3.95;3.33;;;;;;;;;;5033187;28;20178;-76
2021/08/21 12:26:52;;;;;;;4.05;2.78;;;;;;;;;;5032738;28;20229;-76
2021/08/21 12:30:10;;;;;;;4.57;2.65;;;;;;;;;;5032013;28;20643;-75
2021/08/21 12:33:14;;;;;;;3.65;2.70;;;;;;;;;;5035182;28;20186;-76
2021/08/21 12:36:20;;;;;;;3.60;2.90;;;;;;;;;;5024280;28;20648;-76
2021/08/21 12:39:26;;;;;;;3.60;3.10;;;;;;;;;;5024335;28;20645;-76
2021/08/21 12:42:30;;;;;;;4.15;2.92;;;;;;;;;;5036582;28;20224;-76
2021/08/21 12:45:42;;;;;;;6.05;3.17;;;;;;;;;;5036563;28;20185;-76
2021/08/21 12:48:48;;;;;;;2.97;2.65;;;;;;;;;;5024412;28;20182;-76
2021/08/21 12:51:54;;;;;;;3.50;3.20;;;;;;;;;;5036242;28;20217;-75
2021/08/21 12:55:17;;;;;;;3.35;2.72;;;;;;;;;;5035393;28;20186;-75
2021/08/21 12:58:21;;;;;;;3.70;3.10;;;;;;;;;;5036647;28;20519;-75
2021/08/21 13:01:29;;;;;;;3.50;3.20;;;;;;;;;;5036197;28;20220;-76
2021/08/21 13:04:34;;;;;;;15.60;4.22;;;;;;;;;;5035952;28;20181;-76
2021/08/21 13:07:45;;;;;;;62.53;53.80;;;;;;;;;;5036173;28;20177;-74
2021/08/21 13:10:50;;;;;;;90.15;61.40;;;;;;;;;;5035841;28;20189;-76
2021/08/21 13:13:54;;;;;;;75.80;52.85;;;;;;;;;;5023940;28;20189;-76
2021/08/21 13:16:57;;;;;;;5.30;3.88;;;;;;;;;;5034697;28;20226;-75
2021/08/21 13:20:03;;;;;;;4.78;3.60;;;;;;;;;;5035649;28;20655;-75
2021/08/21 13:23:08;;;;;;;4.50;3.45;;;;;;;;;;5035899;28;20181;-75
2021/08/21 13:26:12;;;;;;;5.13;3.42;;;;;;;;;;5034752;28;20201;-75
2021/08/21 13:29:16;;;;;;;5.10;3.33;;;;;;;;;;5035507;28;20174;-75
2021/08/21 13:32:20;;;;;;;4.68;3.47;;;;;;;;;;5035402;28;20220;-75
2021/08/21 13:35:25;;;;;;;4.78;3.63;;;;;;;;;;5035603;28;20177;-75
2021/08/21 13:38:29;;;;;;;5.15;3.05;;;;;;;;;;5035348;28;20181;-75
2021/08/21 13:41:33;;;;;;;4.90;3.05;;;;;;;;;;5034420;28;20224;-75
2021/08/21 13:44:37;;;;;;;6.60;3.33;;;;;;;;;;5035562;28;20533;-76
2021/08/21 13:47:41;;;;;;;4.90;3.47;;;;;;;;;;5035515;28;20185;-75
2021/08/21 13:50:46;;;;;;;4.50;3.40;;;;;;;;;;5035310;28;20181;-75
2021/08/21 13:53:50;;;;;;;3.85;3.10;;;;;;;;;;5035325;28;20181;-75
2021/08/21 13:56:54;;;;;;;3.38;2.97;;;;;;;;;;5034771;28;20209;-76
2021/08/21 13:59:58;;;;;;;4.85;3.45;;;;;;;;;;5034138;28;20181;-75
2021/08/21 14:03:03;;;;;;;4.15;3.45;;;;;;;;;;5034333;28;20177;-76
2021/08/21 14:06:07;;;;;;;4.60;3.17;;;;;;;;;;5034845;28;20632;-75
2021/08/21 14:09:12;;;;;;;4.80;3.08;;;;;;;;;;5034249;28;20181;-76
2021/08/21 14:12:16;;;;;;;4.07;3.25;;;;;;;;;;5022721;28;20220;-74
2021/08/21 14:15:20;;;;;;;4.00;3.60;;;;;;;;;;5033986;28;20173;-75
2021/08/21 14:18:24;;;;;;;3.92;3.38;;;;;;;;;;5033776;28;20185;-76
2021/08/21 14:21:28;;;;;;;3.70;3.40;;;;;;;;;;5033635;28;20220;-75
2021/08/21 14:24:32;;;;;;;4.10;3.00;;;;;;;;;;5034697;28;20513;-75
2021/08/21 14:27:36;;;;;;;3.63;3.25;;;;;;;;;;5034251;28;20204;-76
2021/08/21 14:30:40;;;;;;;4.30;3.53;;;;;;;;;;5034393;28;20196;-75
2021/08/21 14:33:44;;;;;;;4.45;3.70;;;;;;;;;;5034249;28;20196;-75
2021/08/21 14:36:48;;;;;;;4.30;2.97;;;;;;;;;;5033981;28;20233;-76
2021/08/21 14:39:52;;;;;;;3.78;3.47;;;;;;;;;;5034124;28;20539;-75
2021/08/21 14:42:56;;;;;;;3.92;3.50;;;;;;;;;;5033518;28;20224;-75
2021/08/21 14:46:00;;;;;;;3.95;3.20;;;;;;;;;;5034061;28;20177;-75
2021/08/21 14:49:05;;;;;;;4.13;2.80;;;;;;;;;;5034017;28;20180;-75
2021/08/21 14:52:10;;;;;;;4.07;3.05;;;;;;;;;;5033919;28;20221;-75
2021/08/21 14:55:13;;;;;;;6.78;3.33;;;;;;;;;;5033354;28;20184;-75
2021/08/21 14:58:17;;;;;;;4.30;3.50;;;;;;;;;;5034139;28;20173;-75
2021/08/21 15:01:21;;;;;;;5.00;3.20;;;;;;;;;;5032884;28;20221;-75
2021/08/21 15:04:26;;;;;;;6.80;3.35;;;;;;;;;;5033789;28;20176;-75
2021/08/21 15:07:30;;;;;;;4.10;3.30;;;;;;;;;;5033719;28;20177;-75
2021/08/21 15:10:33;;;;;;;3.90;3.50;;;;;;;;;;5032896;28;20169;-74
2021/08/21 15:13:37;;;;;;;6.28;3.50;;;;;;;;;;5037411;28;20193;-75
2021/08/21 15:16:43;;;;;;;7.20;3.53;;;;;;;;;;5032560;28;20213;-75
2021/08/21 15:19:47;;;;;;;6.40;3.30;;;;;;;;;;5032184;28;20905;-74
2021/08/21 15:22:52;;;;;;;3.75;3.42;;;;;;;;;;5030805;28;20225;-75
2021/08/21 15:25:57;;;;;;;3.60;3.30;;;;;;;;;;5048918;28;20184;-75
2021/08/21 15:29:01;;;;;;;5.07;3.55;;;;;;;;;;5037733;28;20208;-75
2021/08/21 15:32:10;;;;;;;8.32;3.42;;;;;;;;;;5048931;28;20227;-75
2021/08/21 15:35:15;;;;;;;8.50;3.75;;;;;;;;;;5031455;28;20201;-74
2021/08/21 15:38:20;;;;;;;4.68;3.28;;;;;;;;;;5029574;28;20177;-75
2021/08/21 15:41:24;;;;;;;5.47;3.45;;;;;;;;;;5030556;28;20224;-74
2021/08/21 15:44:41;;;;;;;4.43;3.83;;;;;;;;;;5039534;28;20742;-75
2021/08/21 15:47:45;;;;;;;4.70;3.65;;;;;;;;;;5037147;28;20172;-74
2021/08/21 15:50:49;;;;;;;5.20;3.55;;;;;;;;;;5031419;28;20209;-74
2021/08/21 15:53:55;;;;;;;4.10;3.10;;;;;;;;;;5032102;28;20204;-74
2021/08/21 15:56:59;;;;;;;5.70;3.25;;;;;;;;;;5043562;28;20222;-74
2021/08/21 16:00:04;;;;;;;8.57;3.92;;;;;;;;;;5049247;28;20185;-75
2021/08/21 16:03:08;;;;;;;9.50;4.00;;;;;;;;;;5017555;28;20207;-74
2021/08/21 16:06:12;;;;;;;6.30;3.50;;;;;;;;;;5026688;28;20209;-74
2021/08/21 16:09:17;;;;;;;5.53;3.55;;;;;;;;;;5034902;28;20197;-75
2021/08/21 16:12:21;;;;;;;6.63;3.38;;;;;;;;;;5034286;28;20699;-74
2021/08/21 16:15:26;;;;;;;4.22;3.40;;;;;;;;;;5040337;28;20183;-74
2021/08/21 16:18:30;;;;;;;5.45;3.30;;;;;;;;;;5032721;28;20181;-74
2021/08/21 16:21:34;;;;;;;4.72;3.58;;;;;;;;;;5043343;28;20217;-75
2021/08/21 16:24:38;;;;;;;5.35;3.42;;;;;;;;;;5070916;22;20228;-86
2021/08/21 16:27:43;;;;;;;4.55;3.60;;;;;;;;;;5057314;28;20181;-85
2021/08/21 16:30:47;;;;;;;5.07;3.83;;;;;;;;;;5054967;28;20186;-85
2021/08/21 16:33:51;;;;;;;6.35;3.67;;;;;;;;;;5041170;28;20178;-85
2021/08/21 16:36:55;;;;;;;4.30;3.90;;;;;;;;;;5046305;28;20214;-85
2021/08/21 16:39:59;;;;;;;4.15;3.50;;;;;;;;;;5034650;28;20629;-85
2021/08/21 16:43:06;;;;;;;5.18;3.53;;;;;;;;;;5023668;28;20183;-85
2021/08/21 16:46:10;;;;;;;5.50;3.47;;;;;;;;;;5034609;28;20519;-85
2021/08/21 16:49:14;;;;;;;6.65;4.22;;;;;;;;;;5023163;28;20202;-85
2021/08/21 16:52:18;;;;;;;5.07;3.90;;;;;;;;;;5046017;28;20200;-85
2021/08/21 16:55:23;;;;;;;5.72;4.22;;;;;;;;;;5034174;28;20222;-85
2021/08/21 16:58:27;;;;;;;4.65;3.60;;;;;;;;;;5022638;28;20201;-85
2021/08/21 17:01:31;;;;;;;5.55;3.72;;;;;;;;;;5034288;28;20203;-85
2021/08/21 17:04:35;;;;;;;41.38;7.10;;;;;;;;;;5034557;28;20218;-85
2021/08/21 17:07:40;;;;;;;30.17;5.03;;;;;;;;;;5033894;28;20179;-85
2021/08/21 17:10:44;;;;;;;22.55;5.50;;;;;;;;;;5045573;28;20181;-85
2021/08/21 17:13:48;;;;;;;23.27;4.20;;;;;;;;;;5045750;28;20176;-85
2021/08/21 17:16:52;;;;;;;5.03;4.30;;;;;;;;;;5034132;28;20201;-85
2021/08/21 17:19:56;;;;;;;5.60;3.70;;;;;;;;;;5023430;28;20192;-85
2021/08/21 17:23:00;;;;;;;5.30;4.00;;;;;;;;;;5034003;28;20186;-85
2021/08/21 17:26:04;;;;;;;5.80;3.80;;;;;;;;;;5045129;28;20200;-85
2021/08/21 17:29:08;;;;;;;7.23;4.13;;;;;;;;;;5022858;28;20183;-85
2021/08/21 17:32:12;;;;;;;4.50;4.10;;;;;;;;;;5022410;28;20179;-85
2021/08/21 17:35:16;;;;;;;5.47;4.07;;;;;;;;;;5033806;28;20280;-85
2021/08/21 17:38:21;;;;;;;5.00;4.00;;;;;;;;;;5033644;28;20203;-85
2021/08/21 17:41:25;;;;;;;7.27;4.13;;;;;;;;;;5022107;28;20179;-85
2021/08/21 17:44:29;;;;;;;4.20;3.77;;;;;;;;;;5033693;28;20221;-85
2021/08/21 17:47:33;;;;;;;8.07;4.60;;;;;;;;;;5033294;28;20198;-85
2021/08/21 17:50:37;;;;;;;4.87;4.37;;;;;;;;;;5021896;28;20203;-85
2021/08/21 17:53:41;;;;;;;6.90;4.20;;;;;;;;;;5021838;28;20202;-85
2021/08/21 17:56:45;;;;;;;5.03;4.53;;;;;;;;;;5044457;28;20183;-85
2021/08/21 17:59:50;;;;;;;6.83;4.17;;;;;;;;;;5022062;28;20184;-85
2021/08/21 18:02:53;;;;;;;6.23;3.73;;;;;;;;;;5033550;28;20205;-85
2021/08/21 18:05:58;;;;;;;6.13;3.97;;;;;;;;;;5021761;28;20225;-85
2021/08/21 18:09:02;;;;;;;4.43;4.03;;;;;;;;;;5032912;28;20191;-85
2021/08/21 18:12:07;;;;;;;4.53;3.87;;;;;;;;;;5021655;28;20200;-84
2021/08/21 18:15:11;;;;;;;6.90;4.63;;;;;;;;;;5032504;28;20224;-85
2021/08/21 18:18:15;;;;;;;6.20;4.27;;;;;;;;;;5044378;28;20209;-85
2021/08/21 18:21:19;;;;;;;8.80;4.57;;;;;;;;;;5045054;28;20184;-85
2021/08/21 18:24:24;;;;;;;6.07;4.30;;;;;;;;;;5032752;28;20219;-85
2021/08/21 18:27:28;;;;;;;5.50;3.90;;;;;;;;;;5021226;28;20176;-85
2021/08/21 18:30:32;;;;;;;6.47;4.27;;;;;;;;;;5020423;28;20184;-85
2021/08/21 18:33:36;;;;;;;5.70;4.60;;;;;;;;;;5021548;28;20177;-85
2021/08/21 18:36:41;;;;;;;5.80;4.70;;;;;;;;;;5021349;28;20184;-85